Coolidge, KS (67836)

3:30 AM MDT on July 23, 2014 (GMT -0600)
Schenck Farms (KCOHOLLY3) Elev 3619 ft | 37.90 °N, 102.11 °W | Change Station

Current weather conditions updated 1 minute ago

Clear
Clear
68.8 °F
Feels Like 68.8 °F
N
4.0
Wind Variable Wind from SSE
Gusts 7.0 mph

Today is forecast to be Warmer than yesterday.

Today
High -- | Low -- °F
--% Chance of Precip.
Yesterday
High -- | Low -- °F
Precip. -- in
5:43 AM 8:05 PM
Waning Crescent, 11% visible
Pressure 30.04 in
Visibility 8.0 miles
Clouds Clear
Dew Point 62 °F
Humidity 79%
Rainfall 0.00 in
Snow Depth Not available.
UV 0 out of 12
Pollen 6.10 out of 12
Air Quality Not available.
Flu Activity Not available.
METAR KLAA 230853Z AUTO 08003KT 8SM CLR 21/17 A3021 RMK AO2 SLP172 T02060167 50004

More Conditions Fewer Conditions

Pressure 30.04 in
Visibility 8.0 miles
Clouds Clear
Dew Point 62 °F
Humidity 79%
Rainfall 0.00 in
Snow Depth Not available.
UV 0 out of 12
Pollen 6.10 out of 12
Air Quality Not available.
Flu Activity Not available.
METAR KLAA 230853Z AUTO 08003KT 8SM CLR 21/17 A3021 RMK AO2 SLP172 T02060167 50004

More Conditions Fewer Conditions

10-Day Weather Forecast

Almanac

Astronomy

Jul. 23, 2014 Rise Set
Actual Time 5:43 AM MDT 8:05 PM MDT
Civil Twilight 5:13 AM MDT 8:34 PM MDT
Nautical Twilight 4:36 AM MDT 9:11 PM MDT
Astronomical Twilight 3:55 AM MDT 9:52 PM MDT
Moon 3:03 AM MDT 5:35 PM MDT
Length of Visible Light 15h 21m
Length of Day
14h 21m
Tomorrow will be 1m 35s shorter.
Waning Crescent, 11% of the Moon is Illuminated
Today
Waning Crescent
Jul 26
New
Aug 3
First Quarter
Aug 10
Full
Aug 17
Last Quarter

Today's Extremes

State Highs State Lows

Community

WunderPhotos

Upload Photos

1,736,535 photos uploaded!

Nearby

Snow Depth

Station Depth Elevation
No new snow has been reported.

Earthquake Activity

City Distance Mag. Time & Date
No recent earthquake activity has been reported nearby.
Minimum magnitude displayed is 2.5.

Coastal Water Temperatures

Place Temperature
No Stations Reporting

Nearby Weather Stations

Station Location Temp. Dew Point Humidity Wind Precip. Elev Updated Type
Schenck Farms, Holly, CO 68.8 °F 62 °F 79% SSE  at  4.0 mph 0.00 in / hr 3619 ft 3:29 AM MDT Normal
Musick on 196, Holly, CO 69.8 °F 61 °F 74% ENE  at  0.0 mph 0.00 in / hr 3579 ft 3:18 AM MDT Normal

Show More Stations Show Fewer Stations